sensor_id;sensor_type;location;lat;lon;timestamp;temperature;humidity
48988;DHT22;34799;51.440;-2.534;2022-10-22T00:00:08;14.30;99.90
48988;DHT22;34799;51.440;-2.534;2022-10-22T00:02:37;14.30;99.90
48988;DHT22;34799;51.440;-2.534;2022-10-22T00:05:05;14.30;99.90
48988;DHT22;34799;51.440;-2.534;2022-10-22T00:07:32;14.30;99.90
48988;DHT22;34799;51.440;-2.534;2022-10-22T00:09:59;14.30;99.90
48988;DHT22;34799;51.440;-2.534;2022-10-22T00:12:27;14.30;99.90
48988;DHT22;34799;51.440;-2.534;2022-10-22T00:14:56;14.40;99.90
48988;DHT22;34799;51.440;-2.534;2022-10-22T00:17:23;14.30;99.90
48988;DHT22;34799;51.440;-2.534;2022-10-22T00:19:50;14.30;99.90
48988;DHT22;34799;51.440;-2.534;2022-10-22T00:22:17;14.30;99.90
48988;DHT22;34799;51.440;-2.534;2022-10-22T00:24:44;14.30;99.90
48988;DHT22;34799;51.440;-2.534;2022-10-22T00:27:11;14.30;99.90
48988;DHT22;34799;51.440;-2.534;2022-10-22T00:29:40;14.30;99.90
48988;DHT22;34799;51.440;-2.534;2022-10-22T00:32:07;14.20;99.90
48988;DHT22;34799;51.440;-2.534;2022-10-22T00:34:35;14.30;99.90
48988;DHT22;34799;51.440;-2.534;2022-10-22T00:37:02;14.20;99.90
48988;DHT22;34799;51.440;-2.534;2022-10-22T00:39:29;14.30;99.90
48988;DHT22;34799;51.440;-2.534;2022-10-22T00:41:58;14.30;99.90
48988;DHT22;34799;51.440;-2.534;2022-10-22T00:44:59;14.30;99.90
48988;DHT22;34799;51.440;-2.534;2022-10-22T00:47:34;14.20;99.90
48988;DHT22;34799;51.440;-2.534;2022-10-22T00:50:05;14.30;99.90
48988;DHT22;34799;51.440;-2.534;2022-10-22T00:52:34;14.30;99.90
48988;DHT22;34799;51.440;-2.534;2022-10-22T00:55:03;14.30;99.90
48988;DHT22;34799;51.440;-2.534;2022-10-22T00:57:31;14.30;99.90
48988;DHT22;34799;51.440;-2.534;2022-10-22T01:00:00;14.30;99.90
48988;DHT22;34799;51.440;-2.534;2022-10-22T01:02:29;14.30;99.90
48988;DHT22;34799;51.440;-2.534;2022-10-22T01:04:56;14.20;99.90
48988;DHT22;34799;51.440;-2.534;2022-10-22T01:07:23;14.20;99.90
48988;DHT22;34799;51.440;-2.534;2022-10-22T01:15:26;14.20;99.90
48988;DHT22;34799;51.440;-2.534;2022-10-22T01:23:33;14.20;99.90
48988;DHT22;34799;51.440;-2.534;2022-10-22T01:31:19;14.00;99.90
48988;DHT22;34799;51.440;-2.534;2022-10-22T01:33:50;14.00;99.90
48988;DHT22;34799;51.440;-2.534;2022-10-22T01:36:20;14.10;99.90
48988;DHT22;34799;51.440;-2.534;2022-10-22T01:38:49;14.10;99.90
48988;DHT22;34799;51.440;-2.534;2022-10-22T01:41:17;14.10;99.90
48988;DHT22;34799;51.440;-2.534;2022-10-22T01:43:44;14.10;99.90
48988;DHT22;34799;51.440;-2.534;2022-10-22T01:46:12;14.20;99.90
48988;DHT22;34799;51.440;-2.534;2022-10-22T01:48:54;14.20;99.90
48988;DHT22;34799;51.440;-2.534;2022-10-22T01:54:51;14.20;99.90
48988;DHT22;34799;51.440;-2.534;2022-10-22T01:57:40;14.20;99.90
48988;DHT22;34799;51.440;-2.534;2022-10-22T02:00:12;14.30;99.90
48988;DHT22;34799;51.440;-2.534;2022-10-22T02:02:47;14.30;99.90
48988;DHT22;34799;51.440;-2.534;2022-10-22T02:08:31;14.30;99.90
48988;DHT22;34799;51.440;-2.534;2022-10-22T02:11:02;14.20;99.90
48988;DHT22;34799;51.440;-2.534;2022-10-22T02:13:35;14.10;99.90
48988;DHT22;34799;51.440;-2.534;2022-10-22T02:16:07;14.10;99.90
48988;DHT22;34799;51.440;-2.534;2022-10-22T02:18:39;14.10;99.90
48988;DHT22;34799;51.440;-2.534;2022-10-22T02:21:10;14.10;99.90
48988;DHT22;34799;51.440;-2.534;2022-10-22T02:23:37;14.00;99.90
48988;DHT22;34799;51.440;-2.534;2022-10-22T02:26:20;13.90;99.90
48988;DHT22;34799;51.440;-2.534;2022-10-22T02:29:08;13.80;99.90
48988;DHT22;34799;51.440;-2.534;2022-10-22T02:31:39;13.80;99.90
48988;DHT22;34799;51.440;-2.534;2022-10-22T02:34:13;13.80;99.90
48988;DHT22;34799;51.440;-2.534;2022-10-22T02:36:42;13.70;99.90
48988;DHT22;34799;51.440;-2.534;2022-10-22T02:39:11;13.70;99.90
48988;DHT22;34799;51.440;-2.534;2022-10-22T02:41:38;13.70;99.90
48988;DHT22;34799;51.440;-2.534;2022-10-22T02:44:09;13.60;99.90
48988;DHT22;34799;51.440;-2.534;2022-10-22T02:46:37;13.60;99.90
48988;DHT22;34799;51.440;-2.534;2022-10-22T02:49:05;13.60;99.90
48988;DHT22;34799;51.440;-2.534;2022-10-22T02:51:33;13.70;99.90
48988;DHT22;34799;51.440;-2.534;2022-10-22T02:54:00;13.70;99.90
48988;DHT22;34799;51.440;-2.534;2022-10-22T02:56:27;13.60;99.90
48988;DHT22;34799;51.440;-2.534;2022-10-22T02:58:55;13.50;99.90
48988;DHT22;34799;51.440;-2.534;2022-10-22T03:01:22;13.50;99.90
48988;DHT22;34799;51.440;-2.534;2022-10-22T03:03:51;13.50;99.90
48988;DHT22;34799;51.440;-2.534;2022-10-22T03:06:18;13.40;99.90
48988;DHT22;34799;51.440;-2.534;2022-10-22T03:08:45;13.40;99.90
48988;DHT22;34799;51.440;-2.534;2022-10-22T03:11:12;13.30;99.90
48988;DHT22;34799;51.440;-2.534;2022-10-22T03:13:39;13.30;99.90
48988;DHT22;34799;51.440;-2.534;2022-10-22T03:16:07;13.30;99.90
48988;DHT22;34799;51.440;-2.534;2022-10-22T03:18:35;13.20;99.90
48988;DHT22;34799;51.440;-2.534;2022-10-22T03:21:10;13.20;99.90
48988;DHT22;34799;51.440;-2.534;2022-10-22T03:23:39;13.20;99.90
48988;DHT22;34799;51.440;-2.534;2022-10-22T03:26:08;13.20;99.90
48988;DHT22;34799;51.440;-2.534;2022-10-22T03:28:38;13.20;99.90
48988;DHT22;34799;51.440;-2.534;2022-10-22T03:31:06;13.10;99.90
48988;DHT22;34799;51.440;-2.534;2022-10-22T03:33:33;13.10;99.90
48988;DHT22;34799;51.440;-2.534;2022-10-22T03:36:00;13.20;99.90
48988;DHT22;34799;51.440;-2.534;2022-10-22T03:38:29;13.10;99.90
48988;DHT22;34799;51.440;-2.534;2022-10-22T03:40:56;13.00;99.90
48988;DHT22;34799;51.440;-2.534;2022-10-22T03:43:23;13.00;99.90
48988;DHT22;34799;51.440;-2.534;2022-10-22T03:45:51;13.00;99.90
48988;DHT22;34799;51.440;-2.534;2022-10-22T03:48:18;13.00;99.90
48988;DHT22;34799;51.440;-2.534;2022-10-22T03:50:46;13.00;99.90
48988;DHT22;34799;51.440;-2.534;2022-10-22T03:53:13;13.00;99.90
48988;DHT22;34799;51.440;-2.534;2022-10-22T03:55:40;13.00;99.90
48988;DHT22;34799;51.440;-2.534;2022-10-22T03:58:08;12.90;99.90
48988;DHT22;34799;51.440;-2.534;2022-10-22T04:00:35;12.90;99.90
48988;DHT22;34799;51.440;-2.534;2022-10-22T04:03:03;12.90;99.90
48988;DHT22;34799;51.440;-2.534;2022-10-22T04:05:33;12.90;99.90
48988;DHT22;34799;51.440;-2.534;2022-10-22T04:08:00;12.90;99.90
48988;DHT22;34799;51.440;-2.534;2022-10-22T04:10:27;12.90;99.90
48988;DHT22;34799;51.440;-2.534;2022-10-22T04:12:56;12.90;99.90
48988;DHT22;34799;51.440;-2.534;2022-10-22T04:15:23;12.90;99.90
48988;DHT22;34799;51.440;-2.534;2022-10-22T04:17:54;12.90;99.90
48988;DHT22;34799;51.440;-2.534;2022-10-22T04:20:22;12.80;99.90
48988;DHT22;34799;51.440;-2.534;2022-10-22T04:22:49;12.80;99.90
48988;DHT22;34799;51.440;-2.534;2022-10-22T04:25:16;12.80;99.90
48988;DHT22;34799;51.440;-2.534;2022-10-22T04:27:43;12.80;99.90
48988;DHT22;34799;51.440;-2.534;2022-10-22T04:30:11;12.80;99.90
48988;DHT22;34799;51.440;-2.534;2022-10-22T04:32:39;12.90;99.90
48988;DHT22;34799;51.440;-2.534;2022-10-22T04:35:07;12.90;99.90
48988;DHT22;34799;51.440;-2.534;2022-10-22T04:37:34;12.90;99.90
48988;DHT22;34799;51.440;-2.534;2022-10-22T04:40:01;12.90;99.90
48988;DHT22;34799;51.440;-2.534;2022-10-22T04:42:28;12.90;99.90
48988;DHT22;34799;51.440;-2.534;2022-10-22T04:44:55;13.00;99.90
48988;DHT22;34799;51.440;-2.534;2022-10-22T04:47:24;12.90;99.90
48988;DHT22;34799;51.440;-2.534;2022-10-22T04:49:51;13.00;99.90
48988;DHT22;34799;51.440;-2.534;2022-10-22T04:52:18;12.90;99.90
48988;DHT22;34799;51.440;-2.534;2022-10-22T04:54:46;12.90;99.90
48988;DHT22;34799;51.440;-2.534;2022-10-22T04:57:13;12.90;99.90
48988;DHT22;34799;51.440;-2.534;2022-10-22T04:59:40;13.00;99.90
48988;DHT22;34799;51.440;-2.534;2022-10-22T05:02:08;13.00;99.90
48988;DHT22;34799;51.440;-2.534;2022-10-22T05:04:35;13.00;99.90
48988;DHT22;34799;51.440;-2.534;2022-10-22T05:07:02;12.90;99.90
48988;DHT22;34799;51.440;-2.534;2022-10-22T05:09:29;13.00;99.90
48988;DHT22;34799;51.440;-2.534;2022-10-22T05:11:56;13.00;99.90
48988;DHT22;34799;51.440;-2.534;2022-10-22T05:14:24;13.00;99.90
48988;DHT22;34799;51.440;-2.534;2022-10-22T05:16:53;13.00;99.90
48988;DHT22;34799;51.440;-2.534;2022-10-22T05:19:22;13.00;99.90
48988;DHT22;34799;51.440;-2.534;2022-10-22T05:21:51;13.00;99.90
48988;DHT22;34799;51.440;-2.534;2022-10-22T05:24:20;13.00;99.90
48988;DHT22;34799;51.440;-2.534;2022-10-22T05:26:51;13.00;99.90
48988;DHT22;34799;51.440;-2.534;2022-10-22T05:29:19;13.00;99.90
48988;DHT22;34799;51.440;-2.534;2022-10-22T05:31:46;13.00;99.90
48988;DHT22;34799;51.440;-2.534;2022-10-22T05:34:14;13.00;99.90
48988;DHT22;34799;51.440;-2.534;2022-10-22T05:36:41;13.00;99.90
48988;DHT22;34799;51.440;-2.534;2022-10-22T05:39:08;12.90;99.90
48988;DHT22;34799;51.440;-2.534;2022-10-22T05:41:37;12.90;99.90
48988;DHT22;34799;51.440;-2.534;2022-10-22T05:44:04;12.90;99.90
48988;DHT22;34799;51.440;-2.534;2022-10-22T05:46:34;12.90;99.90
48988;DHT22;34799;51.440;-2.534;2022-10-22T05:49:05;12.90;99.90
48988;DHT22;34799;51.440;-2.534;2022-10-22T05:51:34;12.90;99.90
48988;DHT22;34799;51.440;-2.534;2022-10-22T05:54:06;12.90;99.90
48988;DHT22;34799;51.440;-2.534;2022-10-22T05:56:34;12.90;99.90
48988;DHT22;34799;51.440;-2.534;2022-10-22T05:59:01;12.90;99.90
48988;DHT22;34799;51.440;-2.534;2022-10-22T06:01:34;12.90;99.90
48988;DHT22;34799;51.440;-2.534;2022-10-22T06:04:05;13.00;99.90
48988;DHT22;34799;51.440;-2.534;2022-10-22T06:06:35;12.90;99.90
48988;DHT22;34799;51.440;-2.534;2022-10-22T06:09:17;12.90;99.90
48988;DHT22;34799;51.440;-2.534;2022-10-22T06:11:46;12.90;99.90
48988;DHT22;34799;51.440;-2.534;2022-10-22T06:14:15;12.80;99.90
48988;DHT22;34799;51.440;-2.534;2022-10-22T06:16:42;12.80;99.90
48988;DHT22;34799;51.440;-2.534;2022-10-22T06:19:14;12.80;99.90
48988;DHT22;34799;51.440;-2.534;2022-10-22T06:21:42;12.80;99.90
48988;DHT22;34799;51.440;-2.534;2022-10-22T06:24:09;12.70;99.90
48988;DHT22;34799;51.440;-2.534;2022-10-22T06:26:37;12.70;99.90
48988;DHT22;34799;51.440;-2.534;2022-10-22T06:29:04;12.70;99.90
48988;DHT22;34799;51.440;-2.534;2022-10-22T06:31:33;12.70;99.90
48988;DHT22;34799;51.440;-2.534;2022-10-22T06:34:05;12.70;99.90
48988;DHT22;34799;51.440;-2.534;2022-10-22T06:36:33;12.70;99.90
48988;DHT22;34799;51.440;-2.534;2022-10-22T06:39:02;12.70;99.90
48988;DHT22;34799;51.440;-2.534;2022-10-22T06:41:30;12.60;99.90
48988;DHT22;34799;51.440;-2.534;2022-10-22T06:43:59;12.60;99.90
48988;DHT22;34799;51.440;-2.534;2022-10-22T06:46:26;12.60;99.90
48988;DHT22;34799;51.440;-2.534;2022-10-22T06:48:56;12.60;99.90
48988;DHT22;34799;51.440;-2.534;2022-10-22T06:51:25;12.60;99.90
48988;DHT22;34799;51.440;-2.534;2022-10-22T06:53:54;12.50;99.90
48988;DHT22;34799;51.440;-2.534;2022-10-22T06:56:23;12.50;99.90
48988;DHT22;34799;51.440;-2.534;2022-10-22T06:58:53;12.50;99.90
48988;DHT22;34799;51.440;-2.534;2022-10-22T07:01:23;12.40;99.90
48988;DHT22;34799;51.440;-2.534;2022-10-22T07:03:51;12.50;99.90
48988;DHT22;34799;51.440;-2.534;2022-10-22T07:06:21;12.50;99.90
48988;DHT22;34799;51.440;-2.534;2022-10-22T07:08:48;12.50;99.90
48988;DHT22;34799;51.440;-2.534;2022-10-22T07:11:19;12.50;99.90
48988;DHT22;34799;51.440;-2.534;2022-10-22T07:13:47;12.50;99.90
48988;DHT22;34799;51.440;-2.534;2022-10-22T07:16:15;12.50;99.90
48988;DHT22;34799;51.440;-2.534;2022-10-22T07:18:45;12.50;99.90
48988;DHT22;34799;51.440;-2.534;2022-10-22T07:21:14;12.50;99.90
48988;DHT22;34799;51.440;-2.534;2022-10-22T07:23:41;12.50;99.90
48988;DHT22;34799;51.440;-2.534;2022-10-22T07:26:14;12.60;99.90
48988;DHT22;34799;51.440;-2.534;2022-10-22T07:28:42;12.60;99.90
48988;DHT22;34799;51.440;-2.534;2022-10-22T07:31:11;12.60;99.90
48988;DHT22;34799;51.440;-2.534;2022-10-22T07:33:39;12.60;99.90
48988;DHT22;34799;51.440;-2.534;2022-10-22T07:36:09;12.50;99.90
48988;DHT22;34799;51.440;-2.534;2022-10-22T07:38:38;12.60;99.90
48988;DHT22;34799;51.440;-2.534;2022-10-22T07:41:05;12.60;99.90
48988;DHT22;34799;51.440;-2.534;2022-10-22T07:43:32;12.70;99.90
48988;DHT22;34799;51.440;-2.534;2022-10-22T07:45:59;12.60;99.90
48988;DHT22;34799;51.440;-2.534;2022-10-22T07:48:28;12.70;99.90
48988;DHT22;34799;51.440;-2.534;2022-10-22T07:50:57;12.70;99.90
48988;DHT22;34799;51.440;-2.534;2022-10-22T07:53:24;12.70;99.90
48988;DHT22;34799;51.440;-2.534;2022-10-22T07:55:51;12.80;99.90
48988;DHT22;34799;51.440;-2.534;2022-10-22T07:58:19;12.80;99.90
48988;DHT22;34799;51.440;-2.534;2022-10-22T08:00:48;12.90;99.90
48988;DHT22;34799;51.440;-2.534;2022-10-22T08:03:17;12.90;99.90
48988;DHT22;34799;51.440;-2.534;2022-10-22T08:05:45;12.90;99.90
48988;DHT22;34799;51.440;-2.534;2022-10-22T08:08:13;13.00;99.90
48988;DHT22;34799;51.440;-2.534;2022-10-22T08:10:42;13.00;99.90
48988;DHT22;34799;51.440;-2.534;2022-10-22T08:13:09;13.00;99.90
48988;DHT22;34799;51.440;-2.534;2022-10-22T08:15:37;13.10;99.90
48988;DHT22;34799;51.440;-2.534;2022-10-22T08:18:04;13.10;99.90
48988;DHT22;34799;51.440;-2.534;2022-10-22T08:20:32;13.10;99.90
48988;DHT22;34799;51.440;-2.534;2022-10-22T08:23:00;13.20;99.90
48988;DHT22;34799;51.440;-2.534;2022-10-22T08:25:28;13.20;99.90
48988;DHT22;34799;51.440;-2.534;2022-10-22T08:27:55;13.20;99.90
48988;DHT22;34799;51.440;-2.534;2022-10-22T08:30:22;13.30;99.90
48988;DHT22;34799;51.440;-2.534;2022-10-22T08:32:49;13.30;99.90
48988;DHT22;34799;51.440;-2.534;2022-10-22T08:35:18;13.30;99.90
48988;DHT22;34799;51.440;-2.534;2022-10-22T08:37:45;13.40;99.90
48988;DHT22;34799;51.440;-2.534;2022-10-22T08:40:33;13.40;99.90
48988;DHT22;34799;51.440;-2.534;2022-10-22T08:46:18;13.50;99.90
48988;DHT22;34799;51.440;-2.534;2022-10-22T08:48:53;13.60;99.90
48988;DHT22;34799;51.440;-2.534;2022-10-22T08:51:26;13.70;99.90
48988;DHT22;34799;51.440;-2.534;2022-10-22T08:56:35;13.80;99.90
48988;DHT22;34799;51.440;-2.534;2022-10-22T08:59:27;13.90;99.90
48988;DHT22;34799;51.440;-2.534;2022-10-22T09:01:56;14.00;99.90
48988;DHT22;34799;51.440;-2.534;2022-10-22T09:04:31;14.10;99.90
48988;DHT22;34799;51.440;-2.534;2022-10-22T09:07:03;14.10;99.90
48988;DHT22;34799;51.440;-2.534;2022-10-22T09:09:41;14.20;99.90
48988;DHT22;34799;51.440;-2.534;2022-10-22T09:12:14;14.30;99.90
48988;DHT22;34799;51.440;-2.534;2022-10-22T09:14:43;14.40;99.90
48988;DHT22;34799;51.440;-2.534;2022-10-22T09:17:28;14.50;99.90
48988;DHT22;34799;51.440;-2.534;2022-10-22T09:20:12;14.50;99.90
48988;DHT22;34799;51.440;-2.534;2022-10-22T09:22:46;14.60;99.90
48988;DHT22;34799;51.440;-2.534;2022-10-22T09:25:21;14.60;99.90
48988;DHT22;34799;51.440;-2.534;2022-10-22T09:27:51;14.70;99.90
48988;DHT22;34799;51.440;-2.534;2022-10-22T09:30:29;14.70;99.90
48988;DHT22;34799;51.440;-2.534;2022-10-22T09:35:55;14.80;99.90
48988;DHT22;34799;51.440;-2.534;2022-10-22T09:38:29;14.80;99.90
48988;DHT22;34799;51.440;-2.534;2022-10-22T09:40:59;14.80;99.90
48988;DHT22;34799;51.440;-2.534;2022-10-22T09:43:26;14.90;99.90
48988;DHT22;34799;51.440;-2.534;2022-10-22T09:45:59;14.90;99.90
48988;DHT22;34799;51.440;-2.534;2022-10-22T09:53:45;15.00;99.90
48988;DHT22;34799;51.440;-2.534;2022-10-22T09:58:51;15.20;99.90
48988;DHT22;34799;51.440;-2.534;2022-10-22T10:01:37;15.30;99.90
48988;DHT22;34799;51.440;-2.534;2022-10-22T10:04:10;15.30;99.90
48988;DHT22;34799;51.440;-2.534;2022-10-22T10:06:40;15.40;99.90
48988;DHT22;34799;51.440;-2.534;2022-10-22T10:09:35;15.40;99.90
48988;DHT22;34799;51.440;-2.534;2022-10-22T10:20:40;15.50;99.90
48988;DHT22;34799;51.440;-2.534;2022-10-22T10:26:30;15.60;99.90
48988;DHT22;34799;51.440;-2.534;2022-10-22T10:32:06;15.70;99.90
48988;DHT22;34799;51.440;-2.534;2022-10-22T10:45:16;16.00;99.90
48988;DHT22;34799;51.440;-2.534;2022-10-22T10:50:23;16.00;99.90
48988;DHT22;34799;51.440;-2.534;2022-10-22T10:53:07;16.10;99.90
48988;DHT22;34799;51.440;-2.534;2022-10-22T11:01:28;16.60;99.90
48988;DHT22;34799;51.440;-2.534;2022-10-22T11:04:33;16.80;99.90
48988;DHT22;34799;51.440;-2.534;2022-10-22T11:07:08;16.90;99.90
48988;DHT22;34799;51.440;-2.534;2022-10-22T11:10:18;17.10;99.90
48988;DHT22;34799;51.440;-2.534;2022-10-22T11:12:49;16.20;99.90
48988;DHT22;34799;51.440;-2.534;2022-10-22T11:15:32;17.10;99.90
48988;DHT22;34799;51.440;-2.534;2022-10-22T11:21:06;17.10;99.90
48988;DHT22;34799;51.440;-2.534;2022-10-22T11:24:23;17.00;99.90
48988;DHT22;34799;51.440;-2.534;2022-10-22T11:26:47;17.00;99.90
48988;DHT22;34799;51.440;-2.534;2022-10-22T11:29:31;17.10;99.90
48988;DHT22;34799;51.440;-2.534;2022-10-22T11:32:01;17.20;99.90
48988;DHT22;34799;51.440;-2.534;2022-10-22T11:34:32;17.20;99.90
48988;DHT22;34799;51.440;-2.534;2022-10-22T11:37:01;17.30;99.90
48988;DHT22;34799;51.440;-2.534;2022-10-22T11:39:54;17.30;99.90
48988;DHT22;34799;51.440;-2.534;2022-10-22T11:42:36;17.40;99.90
48988;DHT22;34799;51.440;-2.534;2022-10-22T11:53:25;17.50;99.90
48988;DHT22;34799;51.440;-2.534;2022-10-22T11:56:20;17.50;99.90
48988;DHT22;34799;51.440;-2.534;2022-10-22T11:58:47;17.50;99.90
48988;DHT22;34799;51.440;-2.534;2022-10-22T12:01:28;17.40;99.90
48988;DHT22;34799;51.440;-2.534;2022-10-22T12:06:26;17.30;99.90
48988;DHT22;34799;51.440;-2.534;2022-10-22T12:11:45;17.30;99.90
48988;DHT22;34799;51.440;-2.534;2022-10-22T12:16:56;17.50;99.90
48988;DHT22;34799;51.440;-2.534;2022-10-22T12:19:30;17.50;99.90
48988;DHT22;34799;51.440;-2.534;2022-10-22T12:22:07;17.60;99.90
48988;DHT22;34799;51.440;-2.534;2022-10-22T12:24:42;18.10;99.90
48988;DHT22;34799;51.440;-2.534;2022-10-22T12:27:26;17.70;99.90
48988;DHT22;34799;51.440;-2.534;2022-10-22T12:29:57;17.80;99.90
48988;DHT22;34799;51.440;-2.534;2022-10-22T12:32:37;17.80;99.90
48988;DHT22;34799;51.440;-2.534;2022-10-22T12:35:15;17.80;99.90
48988;DHT22;34799;51.440;-2.534;2022-10-22T12:37:42;17.90;99.90
48988;DHT22;34799;51.440;-2.534;2022-10-22T12:40:20;17.90;99.90
48988;DHT22;34799;51.440;-2.534;2022-10-22T12:43:44;17.90;99.90
48988;DHT22;34799;51.440;-2.534;2022-10-22T12:45:52;17.90;99.90
48988;DHT22;34799;51.440;-2.534;2022-10-22T12:48:29;17.90;99.90
48988;DHT22;34799;51.440;-2.534;2022-10-22T12:50:59;17.90;99.90
48988;DHT22;34799;51.440;-2.534;2022-10-22T12:53:33;17.60;99.90
48988;DHT22;34799;51.440;-2.534;2022-10-22T12:56:06;17.90;99.90
48988;DHT22;34799;51.440;-2.534;2022-10-22T12:58:45;17.90;99.90
48988;DHT22;34799;51.440;-2.534;2022-10-22T13:01:14;17.80;99.90
48988;DHT22;34799;51.440;-2.534;2022-10-22T13:03:49;17.80;99.90
48988;DHT22;34799;51.440;-2.534;2022-10-22T13:08:57;17.80;99.90
48988;DHT22;34799;51.440;-2.534;2022-10-22T13:11:36;17.80;99.90
48988;DHT22;34799;51.440;-2.534;2022-10-22T13:14:17;17.80;99.90
48988;DHT22;34799;51.440;-2.534;2022-10-22T13:19:59;17.60;99.90
48988;DHT22;34799;51.440;-2.534;2022-10-22T13:22:39;17.50;99.90
48988;DHT22;34799;51.440;-2.534;2022-10-22T13:27:48;17.50;99.90
48988;DHT22;34799;51.440;-2.534;2022-10-22T13:30:28;17.50;99.90
48988;DHT22;34799;51.440;-2.534;2022-10-22T13:33:18;17.50;99.90
48988;DHT22;34799;51.440;-2.534;2022-10-22T13:35:49;17.60;99.90
48988;DHT22;34799;51.440;-2.534;2022-10-22T13:38:18;17.60;99.90
48988;DHT22;34799;51.440;-2.534;2022-10-22T13:40:46;17.60;99.90
48988;DHT22;34799;51.440;-2.534;2022-10-22T13:43:15;17.50;99.90
48988;DHT22;34799;51.440;-2.534;2022-10-22T13:45:44;17.50;99.90
48988;DHT22;34799;51.440;-2.534;2022-10-22T13:48:17;17.40;99.90
48988;DHT22;34799;51.440;-2.534;2022-10-22T13:50:48;17.40;99.90
48988;DHT22;34799;51.440;-2.534;2022-10-22T13:53:22;17.30;99.90
48988;DHT22;34799;51.440;-2.534;2022-10-22T13:55:50;17.40;99.90
48988;DHT22;34799;51.440;-2.534;2022-10-22T13:58:20;17.40;99.90
48988;DHT22;34799;51.440;-2.534;2022-10-22T14:00:50;17.40;99.90
48988;DHT22;34799;51.440;-2.534;2022-10-22T14:03:25;17.40;99.90
48988;DHT22;34799;51.440;-2.534;2022-10-22T14:05:54;17.50;99.90
48988;DHT22;34799;51.440;-2.534;2022-10-22T14:08:22;17.40;99.90
48988;DHT22;34799;51.440;-2.534;2022-10-22T14:10:53;17.40;99.90
48988;DHT22;34799;51.440;-2.534;2022-10-22T14:13:20;17.40;99.90
48988;DHT22;34799;51.440;-2.534;2022-10-22T14:15:49;17.40;99.90
48988;DHT22;34799;51.440;-2.534;2022-10-22T14:18:24;17.40;99.90
48988;DHT22;34799;51.440;-2.534;2022-10-22T14:20:59;17.40;99.90
48988;DHT22;34799;51.440;-2.534;2022-10-22T14:23:31;17.50;99.90
48988;DHT22;34799;51.440;-2.534;2022-10-22T14:25:59;17.50;99.90
48988;DHT22;34799;51.440;-2.534;2022-10-22T14:28:27;17.50;99.90
48988;DHT22;34799;51.440;-2.534;2022-10-22T14:30:55;17.60;99.90
48988;DHT22;34799;51.440;-2.534;2022-10-22T14:33:28;17.60;99.90
48988;DHT22;34799;51.440;-2.534;2022-10-22T14:36:01;17.60;99.90
48988;DHT22;34799;51.440;-2.534;2022-10-22T14:38:29;17.70;99.90
48988;DHT22;34799;51.440;-2.534;2022-10-22T14:40:58;17.80;99.90
48988;DHT22;34799;51.440;-2.534;2022-10-22T14:43:28;17.70;99.90
48988;DHT22;34799;51.440;-2.534;2022-10-22T14:45:58;17.70;99.90
48988;DHT22;34799;51.440;-2.534;2022-10-22T14:48:25;17.70;99.90
48988;DHT22;34799;51.440;-2.534;2022-10-22T14:50:53;17.70;99.90
48988;DHT22;34799;51.440;-2.534;2022-10-22T14:53:20;17.70;99.90
48988;DHT22;34799;51.440;-2.534;2022-10-22T14:55:47;17.70;99.90
48988;DHT22;34799;51.440;-2.534;2022-10-22T14:58:17;17.70;99.90
48988;DHT22;34799;51.440;-2.534;2022-10-22T15:00:44;17.60;99.90
48988;DHT22;34799;51.440;-2.534;2022-10-22T15:03:11;17.60;99.90
48988;DHT22;34799;51.440;-2.534;2022-10-22T15:05:42;17.50;99.90
48988;DHT22;34799;51.440;-2.534;2022-10-22T15:08:11;17.50;99.90
48988;DHT22;34799;51.440;-2.534;2022-10-22T15:10:38;17.40;99.90
48988;DHT22;34799;51.440;-2.534;2022-10-22T15:13:06;17.40;99.90
48988;DHT22;34799;51.440;-2.534;2022-10-22T15:15:35;17.40;99.90
48988;DHT22;34799;51.440;-2.534;2022-10-22T15:18:05;17.40;99.90
48988;DHT22;34799;51.440;-2.534;2022-10-22T15:20:32;17.40;99.90
48988;DHT22;34799;51.440;-2.534;2022-10-22T15:22:59;17.40;99.90
48988;DHT22;34799;51.440;-2.534;2022-10-22T15:25:27;17.40;99.90
48988;DHT22;34799;51.440;-2.534;2022-10-22T15:27:55;17.40;99.90
48988;DHT22;34799;51.440;-2.534;2022-10-22T15:30:22;17.30;99.90
48988;DHT22;34799;51.440;-2.534;2022-10-22T15:32:49;17.40;99.90
48988;DHT22;34799;51.440;-2.534;2022-10-22T15:35:16;17.40;99.90
48988;DHT22;34799;51.440;-2.534;2022-10-22T15:37:44;17.40;99.90
48988;DHT22;34799;51.440;-2.534;2022-10-22T15:40:11;17.30;99.90
48988;DHT22;34799;51.440;-2.534;2022-10-22T15:42:39;17.30;99.90
48988;DHT22;34799;51.440;-2.534;2022-10-22T15:45:06;17.30;99.90
48988;DHT22;34799;51.440;-2.534;2022-10-22T15:47:36;17.30;99.90
48988;DHT22;34799;51.440;-2.534;2022-10-22T15:50:03;17.30;99.90
48988;DHT22;34799;51.440;-2.534;2022-10-22T15:52:31;17.30;99.90
48988;DHT22;34799;51.440;-2.534;2022-10-22T15:54:58;17.30;99.90
48988;DHT22;34799;51.440;-2.534;2022-10-22T15:57:25;17.20;99.90
48988;DHT22;34799;51.440;-2.534;2022-10-22T15:59:52;17.20;99.90
48988;DHT22;34799;51.440;-2.534;2022-10-22T16:02:21;17.10;99.90
48988;DHT22;34799;51.440;-2.534;2022-10-22T16:04:48;17.20;99.90
48988;DHT22;34799;51.440;-2.534;2022-10-22T16:07:15;17.20;99.90
48988;DHT22;34799;51.440;-2.534;2022-10-22T16:09:43;17.10;99.90
48988;DHT22;34799;51.440;-2.534;2022-10-22T16:12:10;17.10;99.90
48988;DHT22;34799;51.440;-2.534;2022-10-22T16:14:39;17.10;99.90
48988;DHT22;34799;51.440;-2.534;2022-10-22T16:17:06;17.10;99.90
48988;DHT22;34799;51.440;-2.534;2022-10-22T16:19:33;17.10;99.90
48988;DHT22;34799;51.440;-2.534;2022-10-22T16:22:00;17.10;99.90
48988;DHT22;34799;51.440;-2.534;2022-10-22T16:24:30;17.10;99.90
48988;DHT22;34799;51.440;-2.534;2022-10-22T16:26:58;17.10;99.90
48988;DHT22;34799;51.440;-2.534;2022-10-22T16:29:26;17.10;99.90
48988;DHT22;34799;51.440;-2.534;2022-10-22T16:31:53;17.00;99.90
48988;DHT22;34799;51.440;-2.534;2022-10-22T16:34:20;16.90;99.90
48988;DHT22;34799;51.440;-2.534;2022-10-22T16:36:50;17.00;99.90
48988;DHT22;34799;51.440;-2.534;2022-10-22T16:39:19;17.00;99.90
48988;DHT22;34799;51.440;-2.534;2022-10-22T16:41:46;17.00;99.90
48988;DHT22;34799;51.440;-2.534;2022-10-22T16:44:13;17.00;99.90
48988;DHT22;34799;51.440;-2.534;2022-10-22T16:46:42;16.90;99.90
48988;DHT22;34799;51.440;-2.534;2022-10-22T16:49:12;16.90;99.90
48988;DHT22;34799;51.440;-2.534;2022-10-22T16:51:39;16.90;99.90
48988;DHT22;34799;51.440;-2.534;2022-10-22T16:54:10;16.90;99.90
48988;DHT22;34799;51.440;-2.534;2022-10-22T16:56:38;16.80;99.90
48988;DHT22;34799;51.440;-2.534;2022-10-22T16:59:05;16.90;99.90
48988;DHT22;34799;51.440;-2.534;2022-10-22T17:01:32;16.90;99.90
48988;DHT22;34799;51.440;-2.534;2022-10-22T17:04:02;16.90;99.90
48988;DHT22;34799;51.440;-2.534;2022-10-22T17:06:29;16.80;99.90
48988;DHT22;34799;51.440;-2.534;2022-10-22T17:08:56;16.80;99.90
48988;DHT22;34799;51.440;-2.534;2022-10-22T17:11:24;16.80;99.90
48988;DHT22;34799;51.440;-2.534;2022-10-22T17:13:53;16.80;99.90
48988;DHT22;34799;51.440;-2.534;2022-10-22T17:16:22;16.70;99.90